Time;durP1;ratioP1;P1;durP2;ratioP2;P2;SDS_P1;SDS_P2;PMS_P1;PMS_P2;Temp;Humidity;BMP_temperature;BMP_pressure;BME280_temperature;BME280_humidity;BME280_pressure;Samples;Min_cycle;Max_cycle;Signal;HPM_P1;HPM_P2
2022/09/21 00:00:33;;;;;;;9.98;4.18;;;;;;;16.24;50.42;100703.78;5017879;28;20041;-83
2022/09/21 00:02:59;;;;;;;11.38;3.92;;;;;;;16.35;50.63;100727.09;5025266;28;20128;-83
2022/09/21 00:05:25;;;;;;;29.85;4.32;;;;;;;16.20;50.65;100718.69;5014288;28;20095;-84
2022/09/21 00:07:51;;;;;;;10.75;3.22;;;;;;;16.36;50.80;100738.81;5014797;28;20481;-83
2022/09/21 00:10:19;;;;;;;18.52;3.20;;;;;;;16.21;50.64;100714.94;5014287;28;20030;-84
2022/09/21 00:12:47;;;;;;;11.70;3.75;;;;;;;16.26;51.02;100737.06;5014378;28;20485;-84
2022/09/21 00:15:16;;;;;;;13.60;3.58;;;;;;;16.28;50.79;100732.31;5013692;28;20033;-84
2022/09/21 00:17:42;;;;;;;13.07;3.75;;;;;;;16.32;51.16;100732.84;5014334;28;20445;-84
2022/09/21 00:20:08;;;;;;;3.97;2.63;;;;;;;16.30;51.27;100746.56;5014455;28;20026;-82
2022/09/21 00:22:34;;;;;;;8.57;3.13;;;;;;;16.14;51.41;100732.91;5014389;28;20124;-84
2022/09/21 00:25:02;;;;;;;8.45;3.70;;;;;;;16.00;51.88;100724.44;5014360;28;20026;-84
2022/09/21 00:27:28;;;;;;;4.88;2.92;;;;;;;16.03;51.67;100737.69;5023004;28;20053;-82
2022/09/21 00:30:05;;;;;;;6.18;2.55;;;;;;;16.01;51.99;100740.59;5036863;28;20030;-82
2022/09/21 00:32:32;;;;;;;13.90;2.67;;;;;;;15.85;52.04;100721.44;5035331;28;20034;-83
2022/09/21 00:34:59;;;;;;;11.77;3.97;;;;;;;15.63;51.94;100692.09;5015835;28;20030;-83
2022/09/21 00:37:25;;;;;;;8.13;2.45;;;;;;;15.88;52.44;100734.69;5012107;28;20448;-83
2022/09/21 00:39:50;;;;;;;4.97;2.00;;;;;;;15.88;52.19;100734.69;5013602;28;20064;-83
2022/09/21 00:42:19;;;;;;;5.03;2.70;;;;;;;15.87;52.03;100743.81;5013348;28;20389;-82
2022/09/21 00:44:45;;;;;;;8.48;2.42;;;;;;;15.87;51.66;100735.69;5012328;28;20037;-83
2022/09/21 00:47:16;;;;;;;10.00;2.53;;;;;;;15.71;51.79;100712.03;5012436;28;20021;-83
2022/09/21 00:49:48;;;;;;;14.52;2.97;;;;;;;15.71;51.96;100736.44;5013501;28;20025;-83
2022/09/21 00:52:18;;;;;;;8.40;3.10;;;;;;;15.77;51.79;100737.66;5013436;28;20026;-84
2022/09/21 00:55:02;;;;;;;4.13;2.60;;;;;;;15.65;52.16;100711.78;5013932;28;20053;-84
2022/09/21 00:57:30;;;;;;;13.38;3.72;;;;;;;15.73;51.99;100744.38;5013455;28;20022;-84
2022/09/21 01:00:00;;;;;;;6.35;3.38;;;;;;;15.66;52.51;100735.16;5012843;28;20493;-84
2022/09/21 01:02:27;;;;;;;11.10;3.35;;;;;;;15.59;52.77;100734.09;5012125;28;20026;-83
2022/09/21 01:04:53;;;;;;;16.48;3.67;;;;;;;15.59;52.99;100734.09;5013540;28;20032;-84
2022/09/21 01:07:26;;;;;;;8.38;4.05;;;;;;;15.56;52.91;100750.66;5012914;28;20037;-84
2022/09/21 01:09:57;;;;;;;6.35;3.67;;;;;;;15.53;53.13;100742.84;5013967;28;20065;-84
2022/09/21 01:12:44;;;;;;;7.78;3.90;;;;;;;15.52;53.20;100743.84;5015381;28;20022;-82
2022/09/21 01:15:09;;;;;;;13.88;4.60;;;;;;;15.45;53.42;100743.56;5030974;28;20036;-82
2022/09/21 01:17:43;;;;;;;18.83;3.30;;;;;;;15.44;53.31;100735.59;5029282;28;20026;-82
2022/09/21 01:20:26;;;;;;;9.13;3.38;;;;;;;15.45;53.33;100731.84;5030384;28;20045;-84
2022/09/21 01:23:11;;;;;;;10.52;2.85;;;;;;;15.45;53.27;100740.00;5013371;28;20026;-83
2022/09/21 01:26:01;;;;;;;9.05;3.60;;;;;;;15.52;53.20;100733.00;5013395;28;20061;-83
2022/09/21 01:28:45;;;;;;;4.80;2.88;;;;;;;15.38;53.17;100709.13;5013107;28;20500;-82
2022/09/21 01:31:24;;;;;;;6.50;2.97;;;;;;;15.35;53.06;100687.75;5024306;28;20056;-81
2022/09/21 01:33:54;;;;;;;7.78;2.95;;;;;;;15.45;53.17;100718.31;5015221;28;20036;-83
2022/09/21 01:36:25;;;;;;;6.97;2.40;;;;;;;15.39;53.16;100708.09;5012329;28;20026;-83
2022/09/21 01:38:54;;;;;;;9.13;3.30;;;;;;;15.18;53.20;100671.31;5012504;28;20033;-84
2022/09/21 01:41:24;;;;;;;4.95;2.58;;;;;;;15.47;53.12;100713.59;5012836;28;20032;-84
2022/09/21 01:43:56;;;;;;;12.10;2.72;;;;;;;15.35;53.13;100698.56;5012364;28;20022;-84
2022/09/21 01:46:27;;;;;;;10.67;2.73;;;;;;;15.43;52.86;100706.78;5012444;28;20042;-81
2022/09/21 01:48:58;;;;;;;4.75;2.33;;;;;;;15.49;52.61;100709.75;5011912;28;20108;-84
2022/09/21 01:51:26;;;;;;;2.50;2.10;;;;;;;15.15;52.82;100666.19;5012675;28;20496;-84
2022/09/21 01:53:58;;;;;;;7.40;2.55;;;;;;;15.25;52.85;100666.13;5012258;28;20053;-83
2022/09/21 01:56:31;;;;;;;6.33;1.80;;;;;;;15.46;52.56;100695.63;5012389;28;20033;-84
2022/09/21 01:59:08;;;;;;;3.58;2.17;;;;;;;15.38;52.41;100685.53;5011836;28;20030;-82
2022/09/21 02:01:40;;;;;;;4.38;1.92;;;;;;;15.59;52.61;100709.69;5011877;28;20029;-83
2022/09/21 02:04:10;;;;;;;3.10;1.98;;;;;;;15.56;52.23;100696.44;5012254;28;20062;-83
2022/09/21 02:06:40;;;;;;;5.05;2.35;;;;;;;15.62;52.42;100703.97;5012363;28;20034;-83
2022/09/21 02:09:06;;;;;;;5.07;2.13;;;;;;;15.67;52.38;100712.47;5012780;28;20525;-82
2022/09/21 02:11:31;;;;;;;4.65;2.08;;;;;;;15.70;52.20;100709.44;5012146;28;20500;-82
2022/09/21 02:13:57;;;;;;;7.43;2.95;;;;;;;15.44;52.39;100673.25;5012729;28;20101;-83
2022/09/21 02:16:31;;;;;;;12.27;3.03;;;;;;;15.68;52.58;100717.75;5012538;28;20563;-82
2022/09/21 02:19:09;;;;;;;6.03;3.80;;;;;;;15.60;52.54;100714.09;5013048;28;20034;-84
2022/09/21 02:21:53;;;;;;;12.02;3.60;;;;;;;15.57;52.89;100719.81;5010746;28;20412;-83
2022/09/21 02:24:24;;;;;;;11.00;3.13;;;;;;;15.52;52.62;100717.59;5010965;28;20025;-83
2022/09/21 02:27:08;;;;;;;6.27;3.17;;;;;;;15.46;52.80;100707.31;5011943;28;20030;-83
2022/09/21 02:29:38;;;;;;;8.73;2.95;;;;;;;15.31;52.76;100687.19;5011745;28;20034;-84
2022/09/21 02:32:32;;;;;;;11.60;3.78;;;;;;;15.51;53.00;100715.00;5010126;28;20029;-84
2022/09/21 02:35:16;;;;;;;9.98;3.10;;;;;;;15.46;52.90;100712.75;4950951;29;20585;-83
2022/09/21 02:37:55;;;;;;;9.38;3.75;;;;;;;15.33;53.18;100716.81;4951175;28;20037;-83
2022/09/21 02:40:29;;;;;;;11.57;3.45;;;;;;;15.29;53.29;100710.84;4939751;29;20043;-83
2022/09/21 02:43:13;;;;;;;9.32;3.20;;;;;;;15.24;53.45;100714.03;4970722;29;20023;-82
2022/09/21 02:45:44;;;;;;;5.35;2.60;;;;;;;15.22;53.49;100704.38;4972998;29;20459;-82
2022/09/21 02:48:17;;;;;;;9.40;2.92;;;;;;;15.20;53.45;100711.78;4971624;29;20034;-83
2022/09/21 02:50:56;;;;;;;14.02;3.15;;;;;;;15.17;53.88;100718.34;4955599;29;20039;-83
2022/09/21 02:53:27;;;;;;;8.52;3.33;;;;;;;15.14;54.00;100717.81;4954910;28;20110;-83
2022/09/21 02:55:55;;;;;;;13.88;6.03;;;;;;;15.06;53.82;100712.31;4954937;29;20027;-83
2022/09/21 02:58:23;;;;;;;10.68;4.35;;;;;;;15.16;53.67;100724.78;4954305;29;20039;-83
2022/09/21 03:00:48;;;;;;;7.20;3.67;;;;;;;15.12;53.70;100719.81;4961665;29;20038;-82
2022/09/21 03:03:23;;;;;;;15.15;3.60;;;;;;;15.06;53.41;100721.28;4955132;29;20027;-84
2022/09/21 03:05:51;;;;;;;12.63;3.33;;;;;;;15.15;53.67;100724.94;4954162;29;20097;-84
2022/09/21 03:08:17;;;;;;;6.90;4.28;;;;;;;15.14;53.31;100713.25;4953918;29;20421;-84
2022/09/21 03:10:43;;;;;;;18.45;4.97;;;;;;;15.09;53.63;100707.44;4959496;28;20027;-84
2022/09/21 03:13:09;;;;;;;13.90;5.65;;;;;;;15.04;53.44;100706.19;5014456;28;20525;-85
2022/09/21 03:15:36;;;;;;;12.57;4.60;;;;;;;14.90;53.67;100704.81;5015308;28;20033;-82
2022/09/21 03:18:03;;;;;;;7.07;4.15;;;;;;;14.91;54.15;100711.97;5017386;28;20424;-83
2022/09/21 03:20:31;;;;;;;15.73;4.75;;;;;;;14.81;54.04;100694.91;5015809;28;20025;-83
2022/09/21 03:22:57;;;;;;;12.57;4.00;;;;;;;14.88;54.21;100714.97;5017128;28;20033;-84
2022/09/21 03:25:22;;;;;;;19.23;6.32;;;;;;;14.83;54.40;100717.25;5014546;28;20046;-77
2022/09/21 03:27:50;;;;;;;7.40;4.07;;;;;;;14.72;54.27;100701.22;5014842;28;20026;-79
2022/09/21 03:30:16;;;;;;;18.17;3.72;;;;;;;14.75;54.49;100695.50;5015382;28;20030;-78
2022/09/21 03:32:41;;;;;;;11.52;4.47;;;;;;;14.53;54.59;100641.75;5014871;28;20026;-80
2022/09/21 03:35:07;;;;;;;16.08;3.83;;;;;;;14.90;54.47;100725.63;5011503;28;20386;-81
2022/09/21 03:37:32;;;;;;;10.82;3.83;;;;;;;14.83;54.60;100714.53;5012577;28;20109;-82
2022/09/21 03:39:59;;;;;;;7.57;4.03;;;;;;;14.87;54.33;100704.28;5013921;28;20426;-80
2022/09/21 03:42:24;;;;;;;13.38;3.63;;;;;;;14.99;54.18;100716.59;5018937;28;20046;-86
2022/09/21 03:44:49;;;;;;;11.02;3.67;;;;;;;14.79;54.11;100677.09;5022563;28;20036;-85
2022/09/21 03:47:15;;;;;;;6.13;3.22;;;;;;;14.90;54.15;100704.81;5017250;28;20041;-85
2022/09/21 03:49:40;;;;;;;6.22;3.45;;;;;;;15.06;54.02;100740.25;5014629;28;20026;-77
2022/09/21 03:52:06;;;;;;;43.60;5.43;;;;;;;14.87;54.09;100688.88;5008262;28;20041;-78
2022/09/21 03:54:31;;;;;;;19.88;4.53;;;;;;;15.09;54.15;100734.53;5010902;28;20042;-81
2022/09/21 03:56:57;;;;;;;11.30;3.92;;;;;;;15.02;54.04;100729.84;5011365;28;20026;-81
2022/09/21 03:59:22;;;;;;;14.23;3.78;;;;;;;14.99;54.07;100713.91;5011991;28;20101;-81
2022/09/21 04:01:48;;;;;;;8.35;3.28;;;;;;;15.07;54.08;100725.72;5011153;28;20030;-82
2022/09/21 04:04:15;;;;;;;15.18;4.28;;;;;;;15.08;54.01;100740.94;5010420;28;20025;-86
2022/09/21 04:06:41;;;;;;;23.27;5.90;;;;;;;15.11;53.95;100739.78;5022713;28;20045;-85
2022/09/21 04:09:07;;;;;;;41.08;6.63;;;;;;;15.10;54.04;100744.38;5023728;28;20022;-83
2022/09/21 04:11:32;;;;;;;21.58;4.60;;;;;;;14.98;54.25;100720.34;5029714;28;20075;-81
2022/09/21 04:13:58;;;;;;;13.27;3.65;;;;;;;14.93;54.27;100704.53;5027806;28;20079;-81
2022/09/21 04:16:24;;;;;;;15.52;4.38;;;;;;;15.16;54.35;100741.06;5023855;28;20030;-79
2022/09/21 04:18:50;;;;;;;16.70;4.35;;;;;;;15.17;54.19;100745.44;5017258;28;20018;-87
2022/09/21 04:21:16;;;;;;;24.48;4.50;;;;;;;14.94;54.01;100702.66;5013292;28;20477;-82
2022/09/21 04:23:42;;;;;;;20.52;4.97;;;;;;;15.19;54.36;100748.88;5011105;28;20501;-87
2022/09/21 04:26:28;;;;;;;26.77;5.13;;;;;;;14.73;54.23;100664.16;5013523;28;20058;-83
2022/09/21 04:28:55;;;;;;;16.48;5.82;;;;;;;15.02;54.07;100709.03;5015422;28;20021;-80
2022/09/21 04:31:21;;;;;;;37.30;7.97;;;;;;;14.98;54.21;100704.91;5016653;28;20033;-80
2022/09/21 04:33:49;;;;;;;19.85;5.20;;;;;;;15.21;54.30;100746.00;5012276;28;20051;-80
2022/09/21 04:36:16;;;;;;;15.60;5.35;;;;;;;15.09;54.67;100725.53;5011509;28;20116;-78
2022/09/21 04:38:41;;;;;;;91.90;13.13;;;;;;;15.17;54.20;100742.75;5011171;28;20036;-79
2022/09/21 04:41:06;;;;;;;19.08;5.63;;;;;;;15.06;54.11;100710.44;5011129;28;20033;-79
2022/09/21 04:43:32;;;;;;;15.15;4.97;;;;;;;15.01;54.45;100726.31;5011744;28;20080;-79
2022/09/21 04:45:57;;;;;;;23.90;5.85;;;;;;;14.93;54.33;100715.34;5013897;28;20060;-83
2022/09/21 04:48:23;;;;;;;37.42;6.03;;;;;;;15.14;54.52;100750.31;5020552;28;20029;-80
2022/09/21 04:50:49;;;;;;;30.33;6.68;;;;;;;15.10;54.29;100755.22;5012425;28;20084;-83
2022/09/21 04:53:15;;;;;;;22.42;6.07;;;;;;;15.07;54.73;100758.22;5013544;28;20060;-79
2022/09/21 04:55:41;;;;;;;25.25;5.35;;;;;;;15.07;54.60;100754.66;5015486;28;20026;-78
2022/09/21 04:58:06;;;;;;;20.40;5.43;;;;;;;15.12;54.97;100747.78;5021278;28;20060;-78
2022/09/21 05:00:32;;;;;;;22.50;5.07;;;;;;;15.21;54.30;100755.00;5027709;28;20122;-78
2022/09/21 05:02:57;;;;;;;15.98;5.35;;;;;;;15.16;54.47;100726.66;5030449;28;20018;-79
2022/09/21 05:05:23;;;;;;;10.13;4.22;;;;;;;15.35;54.08;100744.66;5028688;28;20086;-78
2022/09/21 05:07:48;;;;;;;17.15;4.45;;;;;;;15.33;53.87;100727.66;5024938;28;20049;-78
2022/09/21 05:10:15;;;;;;;15.60;4.80;;;;;;;15.46;54.11;100749.84;5016209;28;20032;-78
2022/09/21 05:12:42;;;;;;;9.48;4.60;;;;;;;15.44;53.78;100747.25;5010819;28;20117;-77
2022/09/21 05:15:10;;;;;;;18.60;5.30;;;;;;;15.48;53.97;100747.84;5010343;28;20105;-77
2022/09/21 05:17:36;;;;;;;12.90;4.18;;;;;;;15.19;53.88;100702.81;4991593;28;20037;-77
2022/09/21 05:20:02;;;;;;;12.38;4.50;;;;;;;15.37;54.21;100735.34;5010021;28;20026;-76
2022/09/21 05:22:28;;;;;;;10.57;4.13;;;;;;;15.52;54.19;100743.84;5010738;28;20029;-82
2022/09/21 05:24:54;;;;;;;9.13;5.10;;;;;;;15.36;53.94;100728.22;5011328;28;20037;-82
2022/09/21 05:27:20;;;;;;;8.63;4.10;;;;;;;15.52;54.29;100746.53;5014683;28;20552;-87
2022/09/21 05:29:45;;;;;;;21.20;5.13;;;;;;;15.39;54.28;100732.47;5014023;28;20061;-83
2022/09/21 05:32:22;;;;;;;18.75;4.95;;;;;;;15.54;53.93;100742.66;5013434;28;20487;-83
2022/09/21 05:35:30;;;;;;;12.90;4.63;;;;;;;15.53;54.15;100741.00;5020909;28;20014;-83
2022/09/21 05:38:17;;;;;;;10.50;4.22;;;;;;;15.63;54.11;100746.31;4976223;28;20043;-81
2022/09/21 05:40:43;;;;;;;22.73;4.40;;;;;;;15.67;53.53;100747.72;4979492;28;20061;-81
2022/09/21 05:43:10;;;;;;;8.90;4.32;;;;;;;15.66;53.88;100735.16;4979657;28;20035;-81
2022/09/21 05:45:42;;;;;;;20.95;4.93;;;;;;;15.66;54.28;100744.16;4972517;28;20090;-81
2022/09/21 05:48:15;;;;;;;10.05;4.18;;;;;;;15.75;54.17;100743.22;4949316;29;20039;-77
2022/09/21 05:51:02;;;;;;;19.25;4.20;;;;;;;15.81;54.08;100741.75;4948669;29;20071;-77
2022/09/21 05:53:58;;;;;;;16.23;3.92;;;;;;;15.85;54.10;100754.00;4948263;29;20046;-79
2022/09/21 05:56:42;;;;;;;11.35;4.03;;;;;;;15.62;54.33;100706.66;4948547;29;20106;-79
2022/09/21 05:59:48;;;;;;;10.57;4.35;;;;;;;15.91;53.96;100747.94;4949348;29;20068;-78
2022/09/21 06:02:32;;;;;;;8.57;3.67;;;;;;;15.93;53.79;100750.50;4929100;29;20392;-78
2022/09/21 06:04:59;;;;;;;6.60;3.97;;;;;;;16.00;54.24;100752.44;4929291;29;20126;-80
2022/09/21 06:07:24;;;;;;;10.30;3.47;;;;;;;15.96;54.14;100745.59;4928933;29;20428;-78
2022/09/21 06:09:50;;;;;;;9.45;3.78;;;;;;;16.00;53.67;100743.44;4928725;29;20039;-78
2022/09/21 06:12:15;;;;;;;15.63;4.97;;;;;;;16.14;53.81;100751.88;4929960;29;20059;-78
2022/09/21 06:14:40;;;;;;;13.68;4.20;;;;;;;16.18;53.85;100742.41;4946451;29;20039;-79
2022/09/21 06:17:06;;;;;;;13.88;3.75;;;;;;;16.22;53.44;100751.09;4952064;29;20069;-79
2022/09/21 06:19:31;;;;;;;11.23;4.22;;;;;;;16.29;53.60;100750.31;4951997;29;20035;-78
2022/09/21 06:21:57;;;;;;;11.80;3.13;;;;;;;16.38;53.50;100753.06;4951771;29;20126;-78
2022/09/21 06:24:23;;;;;;;11.35;3.13;;;;;;;16.33;53.10;100746.25;4935500;29;20047;-78
2022/09/21 06:26:48;;;;;;;9.63;3.88;;;;;;;16.54;52.95;100755.91;4951216;29;20023;-79
2022/09/21 06:29:13;;;;;;;8.27;4.68;;;;;;;16.51;52.55;100729.06;4951079;29;20442;-78
2022/09/21 06:31:39;;;;;;;7.72;4.95;;;;;;;16.74;52.64;100747.41;4951055;29;20108;-79
2022/09/21 06:34:04;;;;;;;17.67;4.07;;;;;;;16.82;52.34;100752.84;4951121;29;20581;-80
2022/09/21 06:36:30;;;;;;;6.57;3.42;;;;;;;16.86;51.82;100745.25;4978206;28;20038;-82
2022/09/21 06:38:56;;;;;;;2.53;2.25;;;;;;;16.74;51.49;100724.81;4991858;28;20135;-82
2022/09/21 06:41:21;;;;;;;6.45;2.55;;;;;;;16.88;51.29;100725.03;4992640;28;20089;-83
2022/09/21 06:43:47;;;;;;;7.43;2.30;;;;;;;17.13;50.95;100749.59;4992875;28;20076;-82
2022/09/21 06:46:12;;;;;;;5.13;2.33;;;;;;;17.18;50.53;100764.44;4994404;28;20048;-83
2022/09/21 06:48:38;;;;;;;7.72;2.67;;;;;;;17.25;50.63;100748.28;4994204;28;20042;-83
2022/09/21 06:51:05;;;;;;;12.38;3.33;;;;;;;17.34;50.15;100742.72;4994298;28;20026;-84
2022/09/21 06:53:34;;;;;;;33.13;5.57;;;;;;;17.27;49.91;100708.22;4996115;28;20413;-83
2022/09/21 06:56:04;;;;;;;5.28;2.67;;;;;;;17.46;48.74;100720.66;5010260;28;20036;-84
2022/09/21 06:58:30;;;;;;;13.68;4.35;;;;;;;17.67;48.08;100748.28;4994263;28;20485;-83
2022/09/21 07:00:56;;;;;;;10.32;2.38;;;;;;;17.63;47.25;100736.00;4994397;28;20049;-82
2022/09/21 07:03:21;;;;;;;5.53;1.58;;;;;;;17.71;46.40;100730.56;4994752;28;20030;-84
2022/09/21 07:05:50;;;;;;;4.13;2.00;;;;;;;17.65;45.55;100696.75;5004979;28;20050;-83
2022/09/21 07:08:15;;;;;;;6.95;2.10;;;;;;;17.89;45.67;100739.44;5010888;28;20125;-85
2022/09/21 07:10:41;;;;;;;8.40;3.28;;;;;;;17.97;45.34;100742.19;5011452;28;20116;-83
2022/09/21 07:13:09;;;;;;;15.18;2.88;;;;;;;17.95;45.43;100726.00;5004273;28;20042;-83
2022/09/21 07:15:34;;;;;;;11.93;3.08;;;;;;;18.07;45.14;100742.84;4994780;28;20026;-83
2022/09/21 07:17:59;;;;;;;38.20;22.85;;;;;;;18.05;45.06;100727.69;4994416;28;20032;-83
2022/09/21 07:20:25;;;;;;;31.23;4.03;;;;;;;18.16;44.92;100728.25;4993774;28;20030;-84
2022/09/21 07:22:50;;;;;;;45.17;3.88;;;;;;;18.34;44.86;100745.25;4995378;28;20029;-86
2022/09/21 07:25:16;;;;;;;33.85;4.05;;;;;;;18.17;43.82;100702.69;5007362;28;20034;-85
2022/09/21 07:27:42;;;;;;;12.20;2.05;;;;;;;18.28;44.21;100705.09;5010800;28;20085;-85
2022/09/21 07:30:08;;;;;;;7.82;1.95;;;;;;;18.50;43.53;100730.75;5013258;28;20058;-85
2022/09/21 07:32:35;;;;;;;4.70;1.77;;;;;;;18.51;43.84;100728.88;5003527;28;20124;-85
2022/09/21 07:35:01;;;;;;;2.65;1.45;;;;;;;18.64;42.77;100737.38;5014094;28;20030;-84
2022/09/21 07:37:27;;;;;;;8.48;1.55;;;;;;;18.53;42.54;100718.69;5016327;28;20156;-83
2022/09/21 07:39:53;;;;;;;6.47;1.42;;;;;;;18.65;42.85;100728.19;5014474;28;20086;-79
2022/09/21 07:42:20;;;;;;;1.85;1.30;;;;;;;18.76;42.40;100735.97;5016615;28;20094;-81
2022/09/21 07:44:46;;;;;;;9.73;1.95;;;;;;;18.77;42.48;100741.25;5012686;28;20073;-81
2022/09/21 07:47:12;;;;;;;4.13;1.80;;;;;;;18.86;42.25;100736.63;5022158;28;20052;-83
2022/09/21 07:49:38;;;;;;;1.42;1.05;;;;;;;18.77;42.05;100715.88;5031163;28;20018;-81
2022/09/21 07:52:04;;;;;;;6.63;1.58;;;;;;;18.79;41.73;100713.81;5032694;28;20029;-83
2022/09/21 07:54:30;;;;;;;21.27;9.63;;;;;;;18.99;42.27;100736.91;5016626;28;20045;-85
2022/09/21 07:59:40;;;;;;;4.30;1.30;;;;;;;19.01;41.23;100710.34;5014171;28;20052;-81
2022/09/21 08:02:05;;;;;;;6.55;1.40;;;;;;;19.17;41.72;100721.19;5012039;28;20488;-81
2022/09/21 08:04:31;;;;;;;1.10;1.00;;;;;;;19.32;41.99;100719.38;5011643;28;20567;-80
2022/09/21 08:06:56;;;;;;;7.03;1.20;;;;;;;19.49;41.34;100718.28;5011794;28;20478;-80
2022/09/21 08:09:21;;;;;;;4.95;2.10;;;;;;;19.64;41.46;100723.81;5011403;28;20030;-81
2022/09/21 08:11:47;;;;;;;5.10;1.77;;;;;;;19.65;41.17;100702.84;5011374;28;20083;-80
2022/09/21 08:14:18;;;;;;;10.68;1.40;;;;;;;19.72;41.28;100701.09;5011932;28;20108;-81
2022/09/21 08:16:45;;;;;;;5.57;2.60;;;;;;;20.00;40.84;100729.50;5011441;28;20045;-82
2022/09/21 08:19:12;;;;;;;5.00;1.60;;;;;;;20.02;40.14;100719.25;5011865;28;20386;-81
2022/09/21 08:21:37;;;;;;;2.83;1.58;;;;;;;20.08;40.25;100724.00;4988552;28;20038;-79
2022/09/21 08:24:03;;;;;;;188.07;137.48;;;;;;;20.12;40.09;100730.75;4989457;28;20039;-77
2022/09/21 08:26:29;;;;;;;4.03;2.75;;;;;;;20.10;40.11;100720.03;4989830;28;20041;-79
2022/09/21 08:28:57;;;;;;;6.63;1.52;;;;;;;20.10;40.07;100694.59;4989101;28;20033;-83
2022/09/21 08:31:23;;;;;;;3.58;1.23;;;;;;;20.22;39.77;100700.47;4989176;28;20085;-79
2022/09/21 08:33:49;;;;;;;16.33;1.83;;;;;;;20.28;39.62;100686.09;4992858;28;20406;-78
2022/09/21 08:36:15;;;;;;;7.85;1.75;;;;;;;20.52;39.45;100718.63;4995760;28;20058;-79
2022/09/21 08:38:41;;;;;;;2.55;1.02;;;;;;;20.54;39.54;100719.31;4998885;28;20034;-78
2022/09/21 08:41:52;;;;;;;2.72;1.45;;;;;;;20.66;39.57;100716.97;4997484;28;20056;-79
2022/09/21 08:44:53;;;;;;;6.93;1.90;;;;;;;20.67;39.93;100713.19;4873767;29;20044;-84
2022/09/21 08:47:42;;;;;;;2.45;1.30;;;;;;;20.64;38.92;100700.72;4883907;29;20067;-88
2022/09/21 08:50:47;;;;;;;5.22;1.55;;;;;;;20.71;39.00;100715.34;4877195;29;20037;-82
2022/09/21 08:53:17;;;;;;;2.97;1.83;;;;;;;20.72;38.98;100716.22;4901326;29;20119;-82
2022/09/21 08:55:43;;;;;;;1.70;1.15;;;;;;;20.76;38.95;100712.94;4918320;29;20071;-81
2022/09/21 08:58:28;;;;;;;12.70;1.40;;;;;;;20.57;38.74;100647.88;4929417;29;20085;-82
2022/09/21 09:01:04;;;;;;;6.25;1.83;;;;;;;21.00;38.62;100704.41;4907819;29;20050;-80
2022/09/21 09:04:11;;;;;;;6.80;1.60;;;;;;;21.05;37.83;100706.56;4911571;29;20135;-86
2022/09/21 09:06:45;;;;;;;3.28;1.48;;;;;;;21.03;37.76;100692.25;4930516;29;20087;-84
2022/09/21 09:09:22;;;;;;;8.20;1.30;;;;;;;21.06;37.91;100687.25;4930583;29;20446;-83
2022/09/21 09:12:27;;;;;;;14.65;5.38;;;;;;;21.19;37.79;100683.88;4935868;29;20442;-82
2022/09/21 09:15:10;;;;;;;1.13;1.02;;;;;;;21.34;37.53;100692.88;4892456;29;20036;-82
2022/09/21 09:17:42;;;;;;;4.78;1.00;;;;;;;21.40;37.13;100683.91;4892639;29;20125;-81
2022/09/21 09:20:19;;;;;;;5.30;1.30;;;;;;;21.33;36.78;100682.97;4896299;29;20510;-85
2022/09/21 09:22:56;;;;;;;6.55;1.10;;;;;;;21.21;36.69;100651.69;4929628;29;20035;-81
2022/09/21 09:25:23;;;;;;;1.80;0.90;;;;;;;21.38;36.51;100675.03;4928903;29;20494;-82
2022/09/21 09:27:54;;;;;;;2.53;1.42;;;;;;;21.54;36.70;100663.84;4913649;29;20038;-83
2022/09/21 09:30:25;;;;;;;2.33;1.05;;;;;;;21.67;36.39;100680.41;4932617;29;20113;-81
2022/09/21 09:33:12;;;;;;;7.43;2.00;;;;;;;21.69;36.52;100675.56;4930264;29;20055;-82
2022/09/21 09:35:44;;;;;;;1.45;1.15;;;;;;;21.56;36.05;100680.91;4927393;29;20127;-81
2022/09/21 09:38:12;;;;;;;;;;;;;;;21.56;35.77;100672.69;4929943;29;20040;-86
2022/09/21 09:40:40;;;;;;;7.47;1.30;;;;;;;21.68;36.33;100671.13;4935454;29;20079;-81
2022/09/21 09:43:45;;;;;;;2.17;1.50;;;;;;;22.07;36.01;100659.72;4961172;28;20045;-82
2022/09/21 09:46:17;;;;;;;6.97;2.28;;;;;;;22.42;35.30;100668.81;4969289;28;20046;-82
2022/09/21 09:49:04;;;;;;;45.75;5.75;;;;;;;22.76;34.82;100666.13;4974173;28;20110;-81
2022/09/21 09:51:37;;;;;;;8.60;1.38;;;;;;;22.68;34.63;100636.13;4986137;28;20033;-81
2022/09/21 09:54:02;;;;;;;3.00;1.25;;;;;;;22.73;34.57;100672.00;5015011;28;20061;-80
2022/09/21 09:56:30;;;;;;;4.45;1.50;;;;;;;22.65;34.39;100630.22;5016659;28;21065;-87
2022/09/21 09:59:05;;;;;;;5.05;1.80;;;;;;;22.82;33.87;100655.38;5015714;28;20037;-82
2022/09/21 10:02:01;;;;;;;7.03;1.77;;;;;;;22.75;34.00;100653.44;5017638;28;20025;-84
2022/09/21 10:04:27;;;;;;;6.75;1.75;;;;;;;22.87;34.02;100655.63;5025355;28;20075;-85
2022/09/21 10:06:53;;;;;;;13.98;2.20;;;;;;;22.78;33.20;100639.31;5026957;28;20033;-79
2022/09/21 10:09:28;;;;;;;3.63;1.70;;;;;;;22.51;35.98;100644.84;5021385;28;20393;-85
2022/09/21 10:11:59;;;;;;;9.43;1.70;;;;;;;22.34;36.57;100625.16;5011887;28;20088;-82
2022/09/21 10:14:28;;;;;;;12.43;2.35;;;;;;;22.23;37.74;100650.38;5013830;28;20041;-83
2022/09/21 10:16:55;;;;;;;4.15;1.67;;;;;;;22.16;37.38;100641.25;5011106;28;20030;-82
2022/09/21 10:19:24;;;;;;;8.23;1.73;;;;;;;22.21;37.35;100650.56;5011056;28;20042;-80
2022/09/21 10:21:55;;;;;;;10.02;1.85;;;;;;;22.09;37.50;100654.03;5012434;28;20041;-80
2022/09/21 10:24:28;;;;;;;7.95;2.15;;;;;;;22.07;37.59;100645.19;5012199;28;20033;-84
2022/09/21 10:27:01;;;;;;;72.65;5.45;;;;;;;22.15;37.15;100645.03;5013445;28;20030;-81
2022/09/21 10:29:53;;;;;;;;;;;;;;;22.11;37.11;100646.47;5013364;28;20061;-78
2022/09/21 10:32:20;;;;;;;9.88;2.08;;;;;;;21.99;37.32;100632.47;4952372;29;19953;-80
2022/09/21 10:35:04;;;;;;;24.65;3.00;;;;;;;21.81;38.50;100639.44;4952217;29;20043;-80
2022/09/21 10:37:40;;;;;;;11.07;2.30;;;;;;;21.61;38.76;100625.59;4952670;29;20066;-77
2022/09/21 10:40:25;;;;;;;15.93;2.03;;;;;;;21.44;39.61;100632.34;4954308;29;20054;-81
2022/09/21 10:42:54;;;;;;;25.02;3.60;;;;;;;21.31;40.35;100635.81;4952235;29;20115;-82
2022/09/21 10:45:20;;;;;;;11.55;2.22;;;;;;;21.30;40.23;100645.06;4952058;29;20117;-84
2022/09/21 10:47:51;;;;;;;3.65;1.50;;;;;;;21.11;39.92;100593.69;4934528;29;20130;-84
2022/09/21 10:50:20;;;;;;;5.37;1.80;;;;;;;21.21;39.73;100635.28;4950364;29;20055;-81
2022/09/21 10:52:45;;;;;;;13.32;1.80;;;;;;;21.32;39.77;100634.75;4951478;29;20421;-86
2022/09/21 10:55:22;;;;;;;5.00;1.35;;;;;;;21.27;39.66;100633.66;4949325;28;20063;-85
2022/09/21 10:57:49;;;;;;;7.68;1.70;;;;;;;21.03;39.40;100578.25;4951089;29;20051;-83
2022/09/21 11:00:20;;;;;;;5.05;1.60;;;;;;;21.15;40.17;100630.56;4950008;28;20039;-84
2022/09/21 11:02:47;;;;;;;10.03;1.83;;;;;;;21.06;40.10;100604.34;4950437;29;20075;-83
2022/09/21 11:05:27;;;;;;;5.10;2.55;;;;;;;21.17;40.54;100628.47;4951200;29;20042;-80
2022/09/21 11:08:10;;;;;;;5.63;2.00;;;;;;;20.83;41.02;100587.22;4950882;29;20069;-83
2022/09/21 11:10:38;;;;;;;14.05;1.80;;;;;;;21.07;40.73;100625.16;4993405;28;20030;-84
2022/09/21 11:13:18;;;;;;;4.95;2.75;;;;;;;21.20;39.78;100628.09;4992187;28;20031;-82
2022/09/21 11:16:08;;;;;;;9.82;2.13;;;;;;;21.08;39.70;100626.88;4992609;28;20122;-83
2022/09/21 11:19:01;;;;;;;12.00;3.20;;;;;;;21.01;39.72;100621.31;4995516;28;20030;-80
2022/09/21 11:21:47;;;;;;;8.27;2.78;;;;;;;20.73;39.97;100589.44;4992437;28;20117;-80
2022/09/21 11:24:26;;;;;;;16.30;3.25;;;;;;;20.86;40.12;100611.44;4992544;28;20048;-83
2022/09/21 11:27:24;;;;;;;11.82;3.22;;;;;;;20.66;40.24;100567.50;4992562;28;20037;-82
2022/09/21 11:29:59;;;;;;;28.60;3.95;;;;;;;20.99;40.00;100614.34;5001051;28;20439;-83
2022/09/21 11:32:36;;;;;;;5.05;2.42;;;;;;;20.80;39.83;100574.81;5008924;28;20038;-83
2022/09/21 11:35:01;;;;;;;10.55;4.45;;;;;;;20.90;40.25;100610.03;5006617;28;20123;-84
2022/09/21 11:37:49;;;;;;;6.80;3.00;;;;;;;21.07;40.22;100626.03;4997679;28;20117;-80
2022/09/21 11:40:41;;;;;;;17.13;4.18;;;;;;;20.82;40.17;100593.75;4991771;28;20029;-80
2022/09/21 11:43:40;;;;;;;16.13;2.90;;;;;;;20.93;39.41;100629.66;4992744;28;20092;-81